Forside
METAR-TAF:

METAR-TAF

Lufthavne :

Baraboo Wisconsin Dells Airport

Baraboo / Wisconsin Dells, Wisconsin, USA

Breddekreds: 43-31-19N, længdekreds: 089-46-15W, højde: 298 m

Aktuelle vejr

Denne rapport blev lavet for 20 minutter siden, kl. 13:55 UTC
Vind 6 kt fra østnordøst
Temperatur 6°C
Fugtighed 52%
Tryk 1029 hPa
Sigt: 16.1 km
skyfri

METAR: KDLL 111355Z AUTO 07006KT 10SM CLR 06/M03 A3038 RMK AO2 T00561028

Tid: 09:15 (14:15 UTC)


TAF: fraværende

Vejrobservationer og prognoser fra mere end 4000 lufthavne (METAR og TAF).

De gule og røde prikker repræsenterer de meteorologiske stationer.

Flyt musen over at se navnet på stationen.

Så klik over at se vejr observationer og prognoser.

At skifte det kort: Klik på de grønne knapper med et sort kors for at zoome ind; på den grønne knap med en bindestreg for at zoome ud; eller på de grønne pile for tilstødende kort.


METAR-TAF: